Gogama, Canada
Current Conditions -  °F | °C
As of 5:00 PM on Sunday 23 Nov 2014 (Local Time) from CYTS Reporting Station
Light Rain Light Rain  
Wind Chill: 33°   Ceiling: 600
Heat Index: 37°   Visibility: 3mi
Dew Point: 37°   Wind: 6mph
Humidity: 100%   Direction: 150°SSE
Pressure: 29.6"   Gusts: NA
Location:  47.67°N, 81.72°W
Report Text: CYTS 232200Z 15005KT 3SM -RA BR OVC006 03/03 A2960 RMK NS8 SLP036
Loading
Personal Weather Stations






























Interactive Weather Map New forecast layout! Learn more

10-Day Weather Forecast

Advertisements
Track Severe Weather on mobile